createdAt,value
2019-06-01T00:02:21.258Z,101295.06
2019-06-01T00:04:54.957Z,101296.73
2019-06-01T00:07:27.628Z,101288.37
2019-06-01T00:10:00.309Z,101287.89
2019-06-01T00:12:32.996Z,101289.73
2019-06-01T00:15:07.688Z,101293.32
2019-06-01T00:17:40.293Z,101294.30
2019-06-01T00:20:13.073Z,101294.34
2019-06-01T00:22:47.420Z,101302.32
2019-06-01T00:25:20.282Z,101297.41
2019-06-01T00:27:52.963Z,101297.75
2019-06-01T00:30:27.315Z,101296.34
2019-06-01T00:32:59.335Z,101293.22
2019-06-01T00:35:32.435Z,101291.11
2019-06-01T00:38:05.514Z,101290.30
2019-06-01T00:40:38.508Z,101285.52
2019-06-01T00:43:11.177Z,101281.56
2019-06-01T00:45:44.541Z,101285.56
2019-06-01T00:48:17.154Z,101289.53
2019-06-01T00:50:51.002Z,101293.45
2019-06-01T00:53:23.958Z,101300.05
2019-06-01T00:55:56.234Z,101300.86
2019-06-01T00:58:28.900Z,101296.89
2019-06-01T01:01:01.578Z,101296.95
2019-06-01T01:03:34.248Z,101298.27
2019-06-01T01:06:06.928Z,101296.89
2019-06-01T01:08:39.616Z,101292.47
2019-06-01T01:11:12.301Z,101294.27
2019-06-01T01:13:45.659Z,101291.70
2019-06-01T01:19:10.699Z,101281.69
2019-06-01T01:21:43.693Z,101286.59
2019-06-01T01:24:16.380Z,101294.05
2019-06-01T01:26:49.056Z,101287.48
2019-06-01T01:29:21.630Z,101289.70
2019-06-01T01:31:55.640Z,101282.66
2019-06-01T01:34:28.361Z,101280.91
2019-06-01T01:37:00.995Z,101290.67
2019-06-01T01:39:41.130Z,101285.81
2019-06-01T01:42:15.273Z,101292.85
2019-06-01T01:44:48.445Z,101285.39
2019-06-01T01:47:21.049Z,101289.82
2019-06-01T01:49:54.100Z,101290.36
2019-06-01T01:52:26.804Z,101290.87
2019-06-01T01:54:59.587Z,101291.77
2019-06-01T01:57:32.564Z,101293.59
2019-06-01T02:00:11.810Z,101299.34
2019-06-01T02:02:45.005Z,101291.02
2019-06-01T02:05:18.281Z,101289.30
2019-06-01T02:07:52.787Z,101279.25
2019-06-01T02:10:25.612Z,101282.79
2019-06-01T02:12:59.384Z,101285.44
2019-06-01T02:15:32.487Z,101275.75
2019-06-01T02:18:06.191Z,101277.50
2019-06-01T02:20:38.977Z,101274.89
2019-06-01T02:23:12.260Z,101271.38
2019-06-01T02:25:45.051Z,101269.20
2019-06-01T02:28:17.940Z,101264.34
2019-06-01T02:30:50.676Z,101277.56
2019-06-01T02:33:23.589Z,101268.34
2019-06-01T02:35:56.270Z,101268.80
2019-06-01T02:38:28.742Z,101272.37
2019-06-01T02:41:03.102Z,101269.27
2019-06-01T02:43:35.667Z,101270.19
2019-06-01T02:46:08.216Z,101274.16
2019-06-01T02:48:40.888Z,101267.54
2019-06-01T02:51:13.479Z,101268.86
2019-06-01T02:53:46.252Z,101267.11
2019-06-01T02:56:18.939Z,101272.41
2019-06-01T02:58:51.627Z,101259.23
2019-06-01T03:01:38.846Z,101263.66
2019-06-01T03:04:12.925Z,101261.88
2019-06-01T03:06:46.350Z,101261.01
2019-06-01T03:09:22.513Z,101265.90
2019-06-01T03:11:59.378Z,101258.85
2019-06-01T03:14:34.412Z,101261.47
2019-06-01T03:17:07.879Z,101267.68
2019-06-01T03:19:44.183Z,101268.55
2019-06-01T03:22:19.512Z,101267.74
2019-06-01T03:24:55.071Z,101262.06
2019-06-01T03:27:34.508Z,101266.47
2019-06-01T03:30:15.226Z,101267.41
2019-06-01T03:32:46.420Z,101267.41
2019-06-01T03:35:19.090Z,101266.55
2019-06-01T03:37:51.778Z,101270.08
2019-06-01T03:40:24.448Z,101275.84
2019-06-01T03:42:57.333Z,101271.37
2019-06-01T03:45:30.197Z,101270.05
2019-06-01T03:48:02.794Z,101271.41
2019-06-01T03:50:35.592Z,101266.59
2019-06-01T03:53:09.876Z,101270.63
2019-06-01T03:55:42.880Z,101272.92
2019-06-01T03:58:15.866Z,101274.73
2019-06-01T04:00:48.540Z,101282.78
2019-06-01T04:03:21.125Z,101279.72
2019-06-01T04:05:53.900Z,101283.27
2019-06-01T04:08:26.587Z,101285.06
2019-06-01T04:10:59.272Z,101286.38
2019-06-01T04:13:32.258Z,101285.94
2019-06-01T04:16:05.836Z,101292.59
2019-06-01T04:18:38.843Z,101293.47
2019-06-01T04:21:12.202Z,101292.58
2019-06-01T04:23:45.123Z,101286.00
2019-06-01T04:26:17.936Z,101289.98
2019-06-01T04:28:50.791Z,101291.28
2019-06-01T04:31:23.772Z,101289.52
2019-06-01T04:33:56.656Z,101295.73
2019-06-01T04:36:29.841Z,101302.81
2019-06-01T04:39:03.346Z,101302.83
2019-06-01T04:41:36.495Z,101296.19
2019-06-01T04:44:10.009Z,101301.56
2019-06-01T04:46:43.024Z,101302.52
2019-06-01T04:49:15.809Z,101303.87
2019-06-01T04:51:48.629Z,101296.40
2019-06-01T04:54:21.564Z,101300.83
2019-06-01T04:56:54.659Z,101304.41
2019-06-01T04:59:27.432Z,101304.86
2019-06-01T05:02:00.626Z,101303.12
2019-06-01T05:04:33.411Z,101305.31
2019-06-01T05:07:07.205Z,101305.34
2019-06-01T05:09:39.994Z,101300.48
2019-06-01T05:12:13.614Z,101299.58
2019-06-01T05:14:46.593Z,101296.47
2019-06-01T05:17:19.680Z,101300.89
2019-06-01T05:19:52.351Z,101301.78
2019-06-01T05:22:25.128Z,101304.43
2019-06-01T05:24:57.808Z,101299.57
2019-06-01T05:27:30.704Z,101306.19
2019-06-01T05:30:02.929Z,101310.62
2019-06-01T05:32:36.062Z,101304.87
2019-06-01T05:35:11.800Z,101307.97
2019-06-01T05:37:44.893Z,101303.08
2019-06-01T05:40:19.747Z,101302.58
2019-06-01T05:42:52.309Z,101307.95
2019-06-01T05:45:25.005Z,101306.06
2019-06-01T05:47:57.666Z,101309.55
2019-06-01T05:50:30.232Z,101321.92
2019-06-01T05:53:03.022Z,101313.95
2019-06-01T05:55:35.713Z,101314.79
2019-06-01T05:58:08.382Z,101304.55
2019-06-01T06:00:45.677Z,101303.15
2019-06-01T06:03:22.195Z,101302.60
2019-06-01T06:05:52.755Z,101292.27
2019-06-01T06:08:25.439Z,101288.67
2019-06-01T06:10:58.424Z,101290.28
2019-06-01T06:13:31.111Z,101296.35
2019-06-01T06:16:03.803Z,101295.86
2019-06-01T06:18:36.096Z,101293.05
2019-06-01T06:21:08.739Z,101286.11
2019-06-01T06:23:41.838Z,101290.15
2019-06-01T06:26:15.488Z,101287.42
2019-06-01T06:28:48.715Z,101293.66
2019-06-01T06:31:21.422Z,101296.08
2019-06-01T06:33:56.860Z,101298.34
2019-06-01T06:36:29.494Z,101285.97
2019-06-01T06:39:04.715Z,101291.33
2019-06-01T06:41:36.488Z,101294.98
2019-06-01T06:44:09.195Z,101299.48
2019-06-01T06:46:41.767Z,101294.22
2019-06-01T06:49:15.040Z,101293.81
2019-06-01T06:51:47.640Z,101307.94
2019-06-01T06:54:20.330Z,101301.72
2019-06-01T06:56:52.934Z,101301.02
2019-06-01T06:59:26.622Z,101304.80
2019-06-01T07:01:59.384Z,101297.63
2019-06-01T07:04:32.071Z,101296.57
2019-06-01T07:07:04.751Z,101294.85
2019-06-01T07:09:39.569Z,101300.84
2019-06-01T07:12:12.263Z,101304.33
2019-06-01T07:14:44.933Z,101295.23
2019-06-01T07:17:17.382Z,101292.16
2019-06-01T07:19:51.192Z,101292.97
2019-06-01T07:22:23.818Z,101284.91
2019-06-01T07:24:56.925Z,101280.52
2019-06-01T07:27:29.559Z,101281.08
2019-06-01T07:30:02.250Z,101278.80
2019-06-01T07:32:34.810Z,101279.23
2019-06-01T07:35:08.723Z,101286.92
2019-06-01T07:37:41.401Z,101284.85
2019-06-01T07:40:14.211Z,101276.52
2019-06-01T07:42:47.162Z,101272.33
2019-06-01T07:45:20.806Z,101282.80
2019-06-01T07:47:53.450Z,101273.97
2019-06-01T07:50:26.122Z,101271.02
2019-06-01T07:52:59.016Z,101273.30
2019-06-01T07:55:33.652Z,101277.98
2019-06-01T07:58:06.426Z,101276.98
2019-06-01T08:00:39.071Z,101273.66
2019-06-01T08:03:11.316Z,101280.10
2019-06-01T08:05:44.252Z,101273.96
2019-06-01T08:08:16.926Z,101274.89
2019-06-01T08:10:49.603Z,101280.41
2019-06-01T08:13:23.310Z,101282.30
2019-06-01T08:15:56.497Z,101279.04
2019-06-01T08:18:30.117Z,101275.24
2019-06-01T08:21:04.214Z,101276.23
2019-06-01T08:23:36.964Z,101272.25
2019-06-01T08:26:10.349Z,101273.50
2019-06-01T08:28:42.974Z,101268.59
2019-06-01T08:31:15.644Z,101273.22
2019-06-01T08:33:48.230Z,101271.58
2019-06-01T08:36:20.896Z,101272.77
2019-06-01T08:38:53.484Z,101272.84
2019-06-01T08:41:27.640Z,101274.49
2019-06-01T08:44:01.174Z,101276.41
2019-06-01T08:46:34.009Z,101270.23
2019-06-01T08:49:06.965Z,101265.58
2019-06-01T08:51:39.563Z,101267.17
2019-06-01T08:54:12.220Z,101271.00
2019-06-01T08:56:44.900Z,101267.76
2019-06-01T08:59:17.466Z,101260.69
2019-06-01T09:01:50.170Z,101253.45
2019-06-01T09:04:22.830Z,101247.31
2019-06-01T09:06:55.506Z,101242.52
2019-06-01T09:09:28.957Z,101249.69
2019-06-01T09:12:01.799Z,101247.70
2019-06-01T09:14:35.587Z,101251.34
2019-06-01T09:17:08.270Z,101249.95
2019-06-01T09:19:40.992Z,101233.53
2019-06-01T09:22:14.445Z,101248.53
2019-06-01T09:24:47.137Z,101242.30
2019-06-01T09:27:19.753Z,101239.61
2019-06-01T09:29:52.399Z,101233.05
2019-06-01T09:32:26.089Z,101240.91
2019-06-01T09:34:58.884Z,101233.56
2019-06-01T09:37:32.532Z,101239.85
2019-06-01T09:40:09.407Z,101239.45
2019-06-01T09:42:42.146Z,101232.08
2019-06-01T09:45:15.024Z,101240.41
2019-06-01T09:47:47.592Z,101242.09
2019-06-01T09:50:20.279Z,101242.23
2019-06-01T09:52:53.161Z,101243.53
2019-06-01T09:55:25.734Z,101252.19
2019-06-01T09:57:58.029Z,101245.19
2019-06-01T10:00:30.791Z,101244.67
2019-06-01T10:03:03.878Z,101240.56
2019-06-01T10:05:36.566Z,101242.28
2019-06-01T10:08:09.133Z,101240.94
2019-06-01T10:10:42.309Z,101247.49
2019-06-01T10:13:14.632Z,101242.95
2019-06-01T10:15:47.278Z,101236.54
2019-06-01T10:18:19.947Z,101239.68
2019-06-01T10:20:52.523Z,101236.19
2019-06-01T10:23:25.218Z,101244.13
2019-06-01T10:25:57.883Z,101233.01
2019-06-01T10:28:31.636Z,101224.97
2019-06-01T10:31:05.298Z,101221.58
2019-06-01T10:33:38.936Z,101215.20
2019-06-01T10:36:20.653Z,101222.10
2019-06-01T10:38:47.325Z,101217.83
2019-06-01T10:41:20.005Z,101223.39
2019-06-01T10:43:52.651Z,101222.50
2019-06-01T10:46:25.266Z,101221.35
2019-06-01T10:48:57.941Z,101230.66
2019-06-01T10:51:31.938Z,101221.05
2019-06-01T10:54:05.243Z,101219.16
2019-06-01T10:56:38.947Z,101216.17
2019-06-01T10:59:11.635Z,101215.72
2019-06-01T11:01:43.857Z,101216.91
2019-06-01T11:04:16.580Z,101216.70
2019-06-01T11:06:49.092Z,101211.89
2019-06-01T11:09:21.932Z,101218.38
2019-06-01T11:11:54.504Z,101216.35
2019-06-01T11:14:27.292Z,101211.05
2019-06-01T11:16:59.994Z,101195.70
2019-06-01T11:19:33.177Z,101192.44
2019-06-01T11:22:06.262Z,101182.75
2019-06-01T11:24:39.516Z,101189.09
2019-06-01T11:27:12.534Z,101178.28
2019-06-01T11:29:51.241Z,101174.39
2019-06-01T11:32:19.019Z,101174.64
2019-06-01T11:34:51.695Z,101161.98
2019-06-01T11:37:24.471Z,101159.80
2019-06-01T11:39:57.148Z,101162.37
2019-06-01T11:42:29.723Z,101146.11
2019-06-01T11:45:02.416Z,101137.78
2019-06-01T11:47:35.093Z,101133.88
2019-06-01T11:50:08.992Z,101134.38
2019-06-01T11:52:41.576Z,101133.53
2019-06-01T11:55:14.769Z,101135.48
2019-06-01T11:57:47.450Z,101132.45
2019-06-01T12:00:20.838Z,101126.48
2019-06-01T12:02:53.411Z,101123.86
2019-06-01T12:05:26.094Z,101123.53
2019-06-01T12:07:59.382Z,101123.00
2019-06-01T12:10:32.079Z,101136.91
2019-06-01T12:13:04.647Z,101115.53
2019-06-01T12:15:38.406Z,101115.63
2019-06-01T12:18:11.331Z,101114.67
2019-06-01T12:20:44.885Z,101120.04
2019-06-01T12:23:17.821Z,101115.40
2019-06-01T12:25:50.500Z,101111.44
2019-06-01T12:28:23.070Z,101107.25
2019-06-01T12:30:55.758Z,101112.70
2019-06-01T12:33:28.438Z,101105.18
2019-06-01T12:36:00.733Z,101101.53
2019-06-01T12:38:34.924Z,101094.25
2019-06-01T12:41:07.591Z,101089.81
2019-06-01T12:43:41.227Z,101080.78
2019-06-01T12:46:14.188Z,101089.14
2019-06-01T12:48:46.866Z,101086.52
2019-06-01T12:51:19.545Z,101078.66
2019-06-01T12:53:52.780Z,101075.98
2019-06-01T12:56:25.624Z,101063.86
2019-06-01T12:58:57.854Z,101066.28
2019-06-01T13:01:30.769Z,101055.45
2019-06-01T13:04:03.455Z,101057.97
2019-06-01T13:06:36.134Z,101055.89
2019-06-01T13:09:10.163Z,101052.42
2019-06-01T13:11:43.196Z,101057.80
2019-06-01T13:14:16.007Z,101051.25
2019-06-01T13:17:03.024Z,101047.95
2019-06-01T13:19:23.011Z,101047.11
2019-06-01T13:21:55.682Z,101044.00
2019-06-01T13:24:28.371Z,101040.52
2019-06-01T13:27:01.094Z,101029.22
2019-06-01T13:29:33.721Z,101031.77
2019-06-01T13:32:06.715Z,101031.77
2019-06-01T13:34:39.397Z,101028.80
2019-06-01T13:37:11.682Z,101010.14
2019-06-01T13:39:45.452Z,101023.37
2019-06-01T13:42:18.552Z,101019.14
2019-06-01T13:44:51.606Z,101017.84
2019-06-01T13:47:24.738Z,101011.31
2019-06-01T13:49:57.295Z,101016.84
2019-06-01T13:52:29.983Z,101014.02
2019-06-01T13:55:02.576Z,101003.86
2019-06-01T13:57:38.580Z,101005.12
2019-06-01T14:00:15.562Z,101001.27
2019-06-01T14:02:49.606Z,101000.98
2019-06-01T14:05:20.852Z,101006.25
2019-06-01T14:07:55.700Z,101001.89
2019-06-01T14:10:28.467Z,100987.84
2019-06-01T14:13:05.333Z,100990.96
2019-06-01T14:15:37.318Z,100992.07
2019-06-01T14:18:09.987Z,100984.70
2019-06-01T14:20:42.775Z,100981.95
2019-06-01T14:23:15.052Z,100984.45
2019-06-01T14:25:47.987Z,100986.59
2019-06-01T14:28:20.803Z,100988.85
2019-06-01T14:30:54.364Z,100985.33
2019-06-01T14:33:27.303Z,100982.36
2019-06-01T14:35:59.861Z,100972.67
2019-06-01T14:38:46.064Z,100971.10
2019-06-01T14:41:06.662Z,100961.09
2019-06-01T14:43:38.940Z,100968.38
2019-06-01T14:46:11.615Z,100961.88
2019-06-01T14:48:44.563Z,100950.62
2019-06-01T14:51:17.172Z,100944.59
2019-06-01T14:53:49.852Z,100941.80
2019-06-01T14:56:22.464Z,100933.86
2019-06-01T14:58:56.000Z,100940.24
2019-06-01T15:01:32.326Z,100926.91
2019-06-01T15:04:02.731Z,100929.48
2019-06-01T15:06:35.358Z,100924.13
2019-06-01T15:09:18.607Z,100923.67
2019-06-01T15:11:43.928Z,100920.18
2019-06-01T15:14:16.207Z,100912.70
2019-06-01T15:16:49.540Z,100913.70
2019-06-01T15:19:22.203Z,100911.37
2019-06-01T15:21:56.115Z,100904.33
2019-06-01T15:24:29.271Z,100904.09
2019-06-01T15:27:03.040Z,100906.70
2019-06-01T15:29:35.643Z,100899.91
2019-06-01T15:32:09.573Z,100908.54
2019-06-01T15:34:42.548Z,100899.26
2019-06-01T15:37:14.771Z,100898.67
2019-06-01T15:39:47.499Z,100895.03
2019-06-01T15:42:21.118Z,100891.88
2019-06-01T15:44:55.008Z,100886.91
2019-06-01T15:47:27.893Z,100892.89
2019-06-01T15:50:00.573Z,100890.16
2019-06-01T15:52:33.161Z,100883.33
2019-06-01T15:55:08.189Z,100882.02
2019-06-01T15:57:41.488Z,100881.53
2019-06-01T16:00:16.013Z,100882.64
2019-06-01T16:02:49.291Z,100878.56
2019-06-01T16:05:22.011Z,100874.83
2019-06-01T16:07:55.093Z,100878.21
2019-06-01T16:10:27.950Z,100881.20
2019-06-01T16:13:01.537Z,100876.85
2019-06-01T16:15:34.427Z,100874.14
2019-06-01T16:18:07.019Z,100864.62
2019-06-01T16:20:39.700Z,100867.69
2019-06-01T16:23:12.436Z,100861.45
2019-06-01T16:25:52.315Z,100872.51
2019-06-01T16:28:19.477Z,100860.94
2019-06-01T16:30:52.346Z,100859.19
2019-06-01T16:33:24.923Z,100862.39
2019-06-01T16:35:58.746Z,100854.79
2019-06-01T16:38:31.512Z,100853.16
2019-06-01T16:41:05.209Z,100848.77
2019-06-01T16:43:38.201Z,100846.66
2019-06-01T16:46:11.912Z,100853.87
2019-06-01T16:48:44.481Z,100847.37
2019-06-01T16:51:16.771Z,100850.48
2019-06-01T16:53:49.440Z,100851.56
2019-06-01T16:56:22.110Z,100854.86
2019-06-01T16:58:55.943Z,100861.44
2019-06-01T17:01:28.413Z,100855.33
2019-06-01T17:04:01.067Z,100857.41
2019-06-01T17:06:33.553Z,100851.77
2019-06-01T17:09:09.014Z,100849.92
2019-06-01T17:11:41.775Z,100845.71
2019-06-01T17:14:14.461Z,100849.51
2019-06-01T17:16:47.136Z,100847.99
2019-06-01T17:19:19.354Z,100845.84
2019-06-01T17:21:51.641Z,100849.75
2019-06-01T17:24:24.251Z,100844.47
2019-06-01T17:26:57.757Z,100842.75
2019-06-01T17:29:30.634Z,100845.71
2019-06-01T17:32:16.732Z,100844.99
2019-06-01T17:34:37.533Z,100842.23
2019-06-01T17:37:10.617Z,100846.67
2019-06-01T17:39:43.401Z,100842.00
2019-06-01T17:42:16.076Z,100839.86
2019-06-01T17:44:48.774Z,100841.09
2019-06-01T17:47:21.427Z,100835.36
2019-06-01T17:49:54.121Z,100832.17
2019-06-01T17:52:26.793Z,100832.71
2019-06-01T17:55:00.714Z,100833.70
2019-06-01T17:57:33.889Z,100831.51
2019-06-01T18:00:11.746Z,100831.67
2019-06-01T18:02:45.294Z,100834.39
2019-06-01T18:05:17.727Z,100827.41
2019-06-01T18:07:50.448Z,100832.33
2019-06-01T18:10:24.550Z,100836.94
2019-06-01T18:12:57.232Z,100840.37
2019-06-01T18:15:29.814Z,100838.53
2019-06-01T18:18:02.490Z,100837.68
2019-06-01T18:20:36.704Z,100834.03
2019-06-01T18:23:10.159Z,100832.98
2019-06-01T18:25:43.244Z,100832.98
2019-06-01T18:28:19.505Z,100828.94
2019-06-01T18:30:51.927Z,100830.21
2019-06-01T18:33:24.708Z,100837.54
2019-06-01T18:35:57.292Z,100839.82
2019-06-01T18:38:29.970Z,100838.38
2019-06-01T18:41:11.617Z,100840.94
2019-06-01T18:43:36.458Z,100840.92
2019-06-01T18:46:10.119Z,100841.02
2019-06-01T18:48:43.216Z,100835.59
2019-06-01T18:51:15.832Z,100844.23
2019-06-01T18:53:48.079Z,100846.02
2019-06-01T18:56:20.673Z,100847.11
2019-06-01T18:58:53.347Z,100855.56
2019-06-01T19:01:26.123Z,100859.00
2019-06-01T19:03:58.910Z,100859.83
2019-06-01T19:06:31.507Z,100861.59
2019-06-01T19:09:05.713Z,100863.24
2019-06-01T19:11:38.397Z,100860.47
2019-06-01T19:14:11.921Z,100861.92
2019-06-01T19:16:44.679Z,100863.56
2019-06-01T19:19:17.338Z,100871.95
2019-06-01T19:21:50.014Z,100880.53
2019-06-01T19:24:22.700Z,100872.28
2019-06-01T19:26:55.331Z,100880.34
2019-06-01T19:29:27.973Z,100882.73
2019-06-01T19:32:00.632Z,100887.91
2019-06-01T19:34:32.941Z,100878.76
2019-06-01T19:37:06.941Z,100880.64
2019-06-01T19:39:40.932Z,100882.55
2019-06-01T19:42:13.705Z,100887.97
2019-06-01T19:44:46.351Z,100879.62
2019-06-01T19:47:19.241Z,100888.52
2019-06-01T19:49:51.508Z,100884.13
2019-06-01T19:52:24.119Z,100888.25
2019-06-01T19:54:56.857Z,100886.11
2019-06-01T19:57:29.473Z,100889.87
2019-06-01T20:00:02.163Z,100887.28
2019-06-01T20:02:35.869Z,100890.39
2019-06-01T20:05:08.852Z,100890.47
2019-06-01T20:07:41.527Z,100886.55
2019-06-01T20:10:14.450Z,100895.06
2019-06-01T20:12:47.095Z,100893.77
2019-06-01T20:15:19.782Z,100893.84
2019-06-01T20:17:52.021Z,100908.63
2019-06-01T20:20:24.726Z,100897.09
2019-06-01T20:22:57.564Z,100908.22
2019-06-01T20:25:29.872Z,100907.41
2019-06-01T20:28:02.563Z,100907.41
2019-06-01T20:30:35.230Z,100908.25
2019-06-01T20:33:07.812Z,100906.86
2019-06-01T20:35:40.086Z,100905.91
2019-06-01T20:38:14.246Z,100909.55
2019-06-01T20:40:47.074Z,100912.70
2019-06-01T20:43:20.809Z,100904.70
2019-06-01T20:45:56.749Z,100902.48
2019-06-01T20:48:28.401Z,100899.48
2019-06-01T20:51:01.086Z,100897.02
2019-06-01T20:53:33.659Z,100901.70
2019-06-01T20:56:06.330Z,100894.63
2019-06-01T20:58:39.020Z,100894.19
2019-06-01T21:01:11.686Z,100898.23
2019-06-01T21:03:44.356Z,100901.47
2019-06-01T21:06:18.517Z,100911.73
2019-06-01T21:08:51.562Z,100912.28
2019-06-01T21:11:24.478Z,100908.37
2019-06-01T21:13:56.768Z,100902.70
2019-06-01T21:16:29.498Z,100905.40
2019-06-01T21:19:02.381Z,100907.68
2019-06-01T21:21:35.164Z,100911.66
2019-06-01T21:24:07.412Z,100911.72
2019-06-01T21:26:40.113Z,100913.04
2019-06-01T21:29:12.798Z,100916.16
2019-06-01T21:31:45.473Z,100916.16
2019-06-01T21:34:21.889Z,100914.39
2019-06-01T21:36:53.494Z,100910.38
2019-06-01T21:39:25.721Z,100913.09
2019-06-01T21:41:58.437Z,100907.83
2019-06-01T21:44:31.228Z,100907.02
2019-06-01T21:47:04.064Z,100905.24
2019-06-01T21:49:36.307Z,100902.64
2019-06-01T21:52:08.595Z,100906.20
2019-06-01T21:54:41.427Z,100899.11
2019-06-01T21:57:14.107Z,100899.13
2019-06-01T21:59:47.202Z,100899.55
2019-06-01T22:02:20.949Z,100904.44
2019-06-01T22:04:54.592Z,100913.33
2019-06-01T22:07:27.895Z,100909.38
2019-06-01T22:10:00.879Z,100910.71
2019-06-01T22:12:33.561Z,100919.13
2019-06-01T22:15:08.356Z,100912.50
2019-06-01T22:17:40.898Z,100919.60
2019-06-01T22:20:13.933Z,100922.70
2019-06-01T22:22:46.748Z,100914.31
2019-06-01T22:25:20.634Z,100914.75
2019-06-01T22:27:53.940Z,100914.31
2019-06-01T22:30:26.621Z,100921.39
2019-06-01T22:32:59.863Z,100916.97
2019-06-01T22:35:32.795Z,100915.22
2019-06-01T22:38:06.500Z,100907.27
2019-06-01T22:40:39.170Z,100910.81
2019-06-01T22:43:12.363Z,100909.95
2019-06-01T22:45:45.252Z,100917.93
2019-06-01T22:48:20.504Z,100912.61
2019-06-01T22:50:53.275Z,100910.40
2019-06-01T22:53:26.776Z,100906.89
2019-06-01T22:56:00.419Z,100911.31
2019-06-01T22:58:33.146Z,100909.97
2019-06-01T23:01:06.458Z,100914.39
2019-06-01T23:03:39.274Z,100904.69
2019-06-01T23:06:12.116Z,100907.35
2019-06-01T23:08:45.553Z,100902.48
2019-06-01T23:11:18.598Z,100906.91
2019-06-01T23:13:53.644Z,100905.59
2019-06-01T23:16:26.099Z,100902.50
2019-06-01T23:18:59.599Z,100903.83
2019-06-01T23:21:32.385Z,100902.50
2019-06-01T23:24:05.684Z,100895.86
2019-06-01T23:26:38.762Z,100900.27
2019-06-01T23:29:12.265Z,100894.53
2019-06-01T23:31:44.795Z,100897.63
2019-06-01T23:34:17.629Z,100890.99
2019-06-01T23:36:50.076Z,100892.34
2019-06-01T23:42:12.252Z,100894.98
2019-06-01T23:44:44.780Z,100890.59
2019-06-01T23:47:17.039Z,100887.45
2019-06-01T23:49:49.596Z,100890.09
2019-06-01T23:52:23.471Z,100889.66
2019-06-01T23:54:56.480Z,100890.55
2019-06-01T23:57:30.054Z,100890.59
